Time;durP1;ratioP1;P1;durP2;ratioP2;P2;SDS_P1;SDS_P2;PMS_P1;PMS_P2;Temp;Humidity;BMP_temperature;BMP_pressure;BME280_temperature;BME280_humidity;BME280_pressure;Samples;Min_cycle;Max_cycle;Signal;HPM_P1;HPM_P2
2021/07/16 00:00:13;;;;;;;8.02;6.20;;;;;;;33.72;26.99;94191.38;5037241;28;20045;-52
2021/07/16 00:02:42;;;;;;;5.38;4.82;;;;;;;33.29;27.74;94197.41;5056099;28;20049;-53
2021/07/16 00:05:10;;;;;;;7.38;6.05;;;;;;;32.98;28.45;94205.34;5054921;28;20060;-51
2021/07/16 00:07:38;;;;;;;7.18;5.68;;;;;;;33.24;27.95;94191.78;5055120;28;20037;-53
2021/07/16 00:10:07;;;;;;;7.15;5.72;;;;;;;33.20;28.53;94188.44;5056105;28;20060;-50
2021/07/16 00:12:36;;;;;;;9.45;6.10;;;;;;;33.28;28.15;94178.88;5054598;28;20049;-54
2021/07/16 00:15:05;;;;;;;6.75;5.55;;;;;;;32.60;28.89;94170.16;5054303;28;20068;-52
2021/07/16 00:17:32;;;;;;;7.05;5.85;;;;;;;33.30;28.18;94160.25;5055633;28;20095;-53
2021/07/16 00:19:59;;;;;;;9.50;6.03;;;;;;;32.92;28.54;94158.38;5055548;28;20064;-50
2021/07/16 00:22:27;;;;;;;6.88;5.55;;;;;;;32.93;28.85;94154.47;5055824;28;20041;-54
2021/07/16 00:24:54;;;;;;;6.80;6.10;;;;;;;32.62;28.99;94145.38;5050126;28;20065;-52
2021/07/16 00:27:22;;;;;;;7.30;5.97;;;;;;;32.84;28.82;94140.09;5055652;28;20111;-51
2021/07/16 00:29:50;;;;;;;8.45;6.07;;;;;;;33.04;28.32;94149.47;5071822;28;20481;-52
2021/07/16 00:32:17;;;;;;;8.07;6.30;;;;;;;32.80;29.22;94134.78;5074477;28;20383;-52
2021/07/16 00:34:44;;;;;;;7.30;5.78;;;;;;;32.59;29.03;94146.22;5059524;28;20064;-52
2021/07/16 00:37:11;;;;;;;8.80;6.45;;;;;;;32.41;29.50;94144.03;5052153;28;20045;-52
2021/07/16 00:39:39;;;;;;;7.50;6.20;;;;;;;32.72;29.18;94144.28;5034396;28;20087;-51
2021/07/16 00:42:06;;;;;;;6.47;5.78;;;;;;;32.45;29.68;94158.97;5035042;28;20042;-54
2021/07/16 00:44:37;;;;;;;8.50;6.13;;;;;;;32.42;30.19;94159.84;5047707;28;20045;-51
2021/07/16 00:47:05;;;;;;;18.17;7.20;;;;;;;32.79;29.49;94181.97;5054812;28;20049;-53
2021/07/16 00:49:33;;;;;;;8.00;5.80;;;;;;;32.64;29.66;94184.31;5053903;28;20063;-53
2021/07/16 00:52:01;;;;;;;6.88;5.82;;;;;;;32.33;30.11;94170.56;5055007;28;20059;-52
2021/07/16 00:54:28;;;;;;;9.38;6.72;;;;;;;32.84;29.08;94169.84;5036100;28;20045;-53
2021/07/16 00:56:55;;;;;;;8.95;5.72;;;;;;;32.29;29.72;94156.38;5053793;28;20053;-54
2021/07/16 00:59:25;;;;;;;9.45;6.30;;;;;;;32.71;29.12;94159.00;5052940;28;20049;-54
2021/07/16 01:01:56;;;;;;;9.75;6.22;;;;;;;32.37;29.76;94167.75;5037463;28;20375;-55
2021/07/16 01:04:24;;;;;;;6.80;6.10;;;;;;;32.96;29.12;94177.97;5054292;28;20048;-51
2021/07/16 01:06:51;;;;;;;7.75;6.00;;;;;;;32.22;29.89;94178.16;5053540;28;20060;-50
2021/07/16 01:09:18;;;;;;;7.45;6.13;;;;;;;32.20;30.24;94175.13;5054976;28;20359;-52
2021/07/16 01:11:46;;;;;;;8.40;6.45;;;;;;;32.55;29.39;94175.34;5053586;28;20057;-51
2021/07/16 01:14:13;;;;;;;11.63;6.45;;;;;;;32.74;29.47;94169.69;5053809;28;20359;-52
2021/07/16 01:16:40;;;;;;;9.45;6.25;;;;;;;32.83;29.23;94168.34;5053759;28;20175;-51
2021/07/16 01:19:10;;;;;;;7.80;6.03;;;;;;;31.96;30.57;94165.75;5053095;28;20049;-55
2021/07/16 01:21:38;;;;;;;9.65;5.80;;;;;;;32.27;29.94;94166.09;5054613;28;20045;-52
2021/07/16 01:24:07;;;;;;;8.95;5.88;;;;;;;32.15;30.49;94156.75;5067936;28;20055;-53
2021/07/16 01:26:36;;;;;;;7.82;5.93;;;;;;;32.33;29.76;94151.63;5054192;28;20750;-52
2021/07/16 01:29:03;;;;;;;9.00;6.38;;;;;;;32.80;29.27;94154.50;5064643;28;20056;-50
2021/07/16 01:31:31;;;;;;;8.20;5.72;;;;;;;32.56;30.00;94152.50;5074679;28;20466;-54
2021/07/16 01:33:58;;;;;;;7.38;5.93;;;;;;;32.28;29.85;94140.59;5056784;28;20447;-51
2021/07/16 01:36:26;;;;;;;8.48;6.38;;;;;;;32.40;29.97;94140.59;5071015;28;20048;-50
2021/07/16 01:38:53;;;;;;;8.05;6.13;;;;;;;32.41;30.07;94135.94;5053337;28;20498;-51
2021/07/16 01:41:20;;;;;;;8.98;6.45;;;;;;;32.63;29.27;94136.81;5054446;28;20052;-51
2021/07/16 01:43:47;;;;;;;13.63;7.13;;;;;;;32.01;30.24;94140.91;5054204;28;20490;-52
2021/07/16 01:46:14;;;;;;;10.32;6.40;;;;;;;31.74;30.73;94138.56;5052961;28;20095;-49
2021/07/16 01:48:41;;;;;;;7.57;6.30;;;;;;;32.70;29.19;94131.19;5054131;28;20076;-49
2021/07/16 01:51:08;;;;;;;8.60;6.20;;;;;;;32.21;29.77;94136.84;5068658;28;20044;-53
2021/07/16 01:53:36;;;;;;;7.75;6.10;;;;;;;32.09;30.51;94139.53;5054362;28;20045;-52
2021/07/16 01:56:03;;;;;;;9.43;7.70;;;;;;;32.47;29.59;94140.38;5053233;28;20060;-54
2021/07/16 01:58:31;;;;;;;7.10;6.07;;;;;;;32.62;29.61;94139.94;5058718;28;20370;-50
2021/07/16 02:00:59;;;;;;;13.30;6.60;;;;;;;30.59;32.95;94143.22;5052531;28;20057;-52
2021/07/16 02:03:26;;;;;;;8.10;6.50;;;;;;;32.12;30.04;94138.69;5053548;28;20068;-50
2021/07/16 02:05:53;;;;;;;7.05;6.15;;;;;;;31.71;31.08;94137.47;5053473;28;20061;-52
2021/07/16 02:08:22;;;;;;;6.68;5.88;;;;;;;32.27;30.15;94130.94;5052649;28;20048;-52
2021/07/16 02:10:52;;;;;;;6.38;5.63;;;;;;;32.32;29.48;94139.28;5053934;28;20363;-51
2021/07/16 02:13:20;;;;;;;10.85;6.35;;;;;;;32.29;29.50;94137.44;5054317;28;20045;-51
2021/07/16 02:15:49;;;;;;;7.93;6.10;;;;;;;32.17;30.15;94138.13;5052629;28;20053;-51
2021/07/16 02:18:17;;;;;;;7.88;5.60;;;;;;;32.34;29.47;94126.09;5052755;28;20056;-52
2021/07/16 02:20:45;;;;;;;7.53;5.70;;;;;;;32.74;28.74;94110.16;5053673;28;20056;-53
2021/07/16 02:23:15;;;;;;;6.97;6.28;;;;;;;32.22;29.57;94119.44;5054054;28;20741;-54
2021/07/16 02:25:42;;;;;;;11.32;5.57;;;;;;;32.59;29.55;94119.94;5053729;28;20436;-50
2021/07/16 02:28:30;;;;;;;9.02;5.75;;;;;;;32.46;29.44;94117.22;5051827;28;20054;-51
2021/07/16 02:31:04;;;;;;;9.45;5.68;;;;;;;32.60;29.26;94118.75;5053725;28;20053;-49
2021/07/16 02:33:32;;;;;;;7.15;6.32;;;;;;;32.21;30.11;94119.88;5053157;28;20451;-52
2021/07/16 02:35:59;;;;;;;7.95;6.47;;;;;;;32.27;29.56;94115.50;5053695;28;20049;-53
2021/07/16 02:38:26;;;;;;;8.93;6.10;;;;;;;32.03;30.04;94112.28;5057403;28;20128;-50
2021/07/16 02:40:54;;;;;;;10.65;6.07;;;;;;;32.16;29.78;94115.00;5057342;28;20048;-50
2021/07/16 02:43:22;;;;;;;8.60;5.97;;;;;;;32.31;29.81;94118.84;5057872;28;20053;-51
2021/07/16 02:45:50;;;;;;;8.68;6.63;;;;;;;31.78;30.71;94123.03;5057191;28;20045;-52
2021/07/16 02:48:17;;;;;;;7.30;5.97;;;;;;;32.34;29.85;94126.09;5057292;28;20359;-53
2021/07/16 02:50:47;;;;;;;9.55;5.70;;;;;;;32.27;29.62;94131.72;5056156;28;20048;-51
2021/07/16 02:53:16;;;;;;;7.15;5.95;;;;;;;32.42;29.53;94132.78;5056733;28;20049;-55
2021/07/16 02:55:43;;;;;;;8.38;6.00;;;;;;;32.42;29.84;94130.09;5057081;28;20055;-50
2021/07/16 02:58:10;;;;;;;11.13;6.55;;;;;;;32.02;30.34;94132.41;5054804;28;20380;-51
2021/07/16 03:00:38;;;;;;;6.65;5.65;;;;;;;32.37;29.73;94127.94;5056981;28;20056;-50
2021/07/16 03:03:05;;;;;;;8.02;5.97;;;;;;;31.82;30.79;94123.69;5056363;28;20052;-52
2021/07/16 03:05:35;;;;;;;7.90;5.97;;;;;;;32.34;29.95;94130.75;5057111;28;20293;-53
2021/07/16 03:08:03;;;;;;;10.25;6.45;;;;;;;31.81;30.56;94125.63;5055815;28;20045;-51
2021/07/16 03:10:32;;;;;;;7.65;5.70;;;;;;;32.13;29.81;94127.44;5056893;28;20060;-53
2021/07/16 03:13:02;;;;;;;8.90;6.45;;;;;;;31.82;30.41;94135.25;5057106;28;20057;-51
2021/07/16 03:15:29;;;;;;;9.77;6.75;;;;;;;31.95;30.65;94145.31;5056916;28;20045;-50
2021/07/16 03:17:57;;;;;;;12.15;7.32;;;;;;;32.08;30.14;94151.53;5055383;28;20052;-54
2021/07/16 03:20:30;;;;;;;7.65;6.78;;;;;;;32.02;30.75;94145.91;5056729;28;20333;-50
2021/07/16 03:22:58;;;;;;;8.63;6.78;;;;;;;31.79;30.70;94146.91;5055737;28;20049;-50
2021/07/16 03:25:26;;;;;;;10.75;6.68;;;;;;;31.76;30.53;94147.78;5056335;28;20045;-52
2021/07/16 03:27:54;;;;;;;8.23;6.70;;;;;;;31.62;31.08;94152.75;5040593;28;20053;-51
2021/07/16 03:30:26;;;;;;;10.77;6.68;;;;;;;32.12;30.45;94149.50;5075432;28;20056;-50
2021/07/16 03:32:55;;;;;;;11.00;6.47;;;;;;;31.74;31.19;94154.75;5056808;28;20097;-50
2021/07/16 03:35:23;;;;;;;13.63;6.88;;;;;;;31.70;31.03;94149.44;5056387;28;20056;-51
2021/07/16 03:37:52;;;;;;;8.35;6.50;;;;;;;32.16;30.38;94142.78;5056425;28;20048;-51
2021/07/16 03:40:22;;;;;;;18.08;7.25;;;;;;;31.57;31.39;94151.34;5056290;28;20367;-51
2021/07/16 03:42:50;;;;;;;19.20;8.70;;;;;;;31.74;31.35;94158.22;5055345;28;20052;-51
2021/07/16 03:45:18;;;;;;;38.17;9.30;;;;;;;31.75;31.08;94148.97;5056253;28;20055;-50
2021/07/16 03:47:47;;;;;;;30.67;9.15;;;;;;;32.04;30.95;94145.47;5055876;28;20048;-50
2021/07/16 03:50:16;;;;;;;27.20;8.93;;;;;;;31.88;31.05;94149.75;5056690;28;20439;-49
2021/07/16 03:52:43;;;;;;;21.48;7.90;;;;;;;31.52;31.44;94149.16;5055342;28;20048;-52
2021/07/16 03:55:12;;;;;;;17.38;8.23;;;;;;;32.38;30.69;94148.38;5056092;28;20045;-52
2021/07/16 03:57:43;;;;;;;17.73;8.57;;;;;;;31.63;31.99;94149.63;5054880;28;20049;-51
2021/07/16 04:00:12;;;;;;;16.98;7.00;;;;;;;31.99;31.13;94152.16;5035212;28;20045;-51
2021/07/16 04:02:40;;;;;;;12.88;6.97;;;;;;;32.10;31.43;94149.16;5055353;28;20067;-51
2021/07/16 04:05:08;;;;;;;13.35;6.75;;;;;;;32.05;31.73;94141.59;5055137;28;20052;-51
2021/07/16 04:07:35;;;;;;;18.40;7.10;;;;;;;32.05;31.69;94136.19;5054956;28;20053;-52
2021/07/16 04:10:03;;;;;;;16.90;7.30;;;;;;;32.05;31.51;94150.47;5054585;28;20052;-55
2021/07/16 04:12:30;;;;;;;18.98;7.47;;;;;;;31.71;32.34;94156.38;5055707;28;20371;-50
2021/07/16 04:14:57;;;;;;;16.50;7.78;;;;;;;31.69;32.70;94153.31;5055662;28;20052;-53
2021/07/16 04:17:25;;;;;;;21.27;8.02;;;;;;;31.51;31.93;94142.25;5055744;28;20060;-51
2021/07/16 04:19:53;;;;;;;13.00;7.07;;;;;;;32.06;31.65;94141.16;5055845;28;20063;-53
2021/07/16 04:22:24;;;;;;;14.77;7.20;;;;;;;31.76;31.83;94147.78;5055842;28;20053;-53
2021/07/16 04:24:52;;;;;;;8.77;5.85;;;;;;;31.33;32.26;94142.69;5055072;28;20061;-51
2021/07/16 04:27:20;;;;;;;9.35;6.30;;;;;;;31.81;30.90;94141.09;5054922;28;20049;-51
2021/07/16 04:29:47;;;;;;;10.68;6.05;;;;;;;31.51;32.39;94147.63;5053373;28;20047;-51
2021/07/16 04:32:14;;;;;;;10.43;6.82;;;;;;;31.60;32.25;94147.78;5055305;28;20063;-50
2021/07/16 04:34:42;;;;;;;12.23;5.20;;;;;;;31.46;32.01;94142.72;5054312;28;20059;-52
2021/07/16 04:37:10;;;;;;;7.60;5.35;;;;;;;31.70;31.38;94140.56;5055624;28;20041;-52
2021/07/16 04:39:37;;;;;;;5.90;5.28;;;;;;;32.04;31.15;94145.47;5055389;28;20049;-50
2021/07/16 04:42:05;;;;;;;7.32;5.68;;;;;;;31.71;31.10;94145.56;5055038;28;20386;-52
2021/07/16 04:44:33;;;;;;;7.40;5.43;;;;;;;31.78;31.46;94150.81;5055326;28;20044;-51
2021/07/16 04:47:00;;;;;;;8.68;5.88;;;;;;;31.67;31.86;94147.59;5054878;28;20083;-51
2021/07/16 04:49:27;;;;;;;8.48;5.60;;;;;;;31.60;31.48;94145.06;5055244;28;20040;-52
2021/07/16 04:51:54;;;;;;;9.10;6.45;;;;;;;31.41;32.06;94148.66;5054707;28;20387;-51
2021/07/16 04:54:22;;;;;;;10.73;6.47;;;;;;;31.37;31.97;94142.59;5055179;28;20085;-54
2021/07/16 04:56:49;;;;;;;8.05;5.78;;;;;;;32.10;30.46;94138.34;5054722;28;20052;-51
2021/07/16 04:59:16;;;;;;;8.35;5.38;;;;;;;32.00;31.06;94139.38;5066328;28;20052;-51
2021/07/16 05:01:43;;;;;;;6.63;5.55;;;;;;;31.67;31.51;94138.72;5053321;28;20056;-52
2021/07/16 05:04:10;;;;;;;8.77;6.28;;;;;;;32.13;31.00;94135.53;5055149;28;20055;-52
2021/07/16 05:06:38;;;;;;;6.50;5.80;;;;;;;32.41;30.34;94141.34;5054164;28;20063;-51
2021/07/16 05:09:05;;;;;;;7.53;5.50;;;;;;;32.11;30.57;94142.56;5052213;28;20324;-51
2021/07/16 05:11:32;;;;;;;9.48;5.75;;;;;;;32.69;30.28;94139.72;5054025;28;20060;-55
2021/07/16 05:14:01;;;;;;;9.27;6.03;;;;;;;32.60;30.22;94134.22;5035629;28;20491;-51
2021/07/16 05:16:28;;;;;;;7.93;5.57;;;;;;;32.94;29.72;94128.91;5048221;28;20045;-53
2021/07/16 05:18:55;;;;;;;9.75;5.85;;;;;;;33.00;29.16;94131.81;5053764;28;20478;-51
2021/07/16 05:21:22;;;;;;;9.27;5.75;;;;;;;32.87;29.57;94134.56;5053417;28;20049;-52
2021/07/16 05:23:49;;;;;;;9.63;6.07;;;;;;;33.02;29.34;94124.03;5053288;28;20063;-53
2021/07/16 05:26:16;;;;;;;9.73;6.10;;;;;;;32.99;29.30;94125.66;5053394;28;20501;-50
2021/07/16 05:28:45;;;;;;;7.80;5.88;;;;;;;33.00;29.48;94127.16;5061351;28;20048;-52
2021/07/16 05:31:12;;;;;;;9.23;6.22;;;;;;;33.23;29.51;94111.75;5043417;28;20057;-53
2021/07/16 05:33:39;;;;;;;10.18;7.10;;;;;;;33.03;29.42;94112.75;5054144;28;20490;-51
2021/07/16 05:36:07;;;;;;;7.40;5.82;;;;;;;32.95;29.52;94114.19;5053350;28;20053;-51
2021/07/16 05:38:34;;;;;;;7.82;5.63;;;;;;;33.40;29.28;94107.72;5053398;28;20064;-52
2021/07/16 05:41:01;;;;;;;11.82;5.90;;;;;;;33.41;28.68;94112.69;5054207;28;20076;-53
2021/07/16 05:43:28;;;;;;;8.25;6.10;;;;;;;33.30;28.69;94111.50;5054651;28;20053;-52
2021/07/16 05:45:55;;;;;;;8.45;5.82;;;;;;;33.36;28.50;94104.38;5052888;28;20359;-52
2021/07/16 05:48:22;;;;;;;9.35;5.88;;;;;;;33.40;28.31;94111.19;5053679;28;20379;-50
2021/07/16 05:50:49;;;;;;;12.15;5.93;;;;;;;33.54;28.27;94109.16;5053415;28;20079;-53
2021/07/16 05:53:17;;;;;;;10.70;6.10;;;;;;;33.37;28.31;94112.06;5054331;28;20056;-54
2021/07/16 05:55:44;;;;;;;8.40;6.35;;;;;;;33.30;28.94;94116.91;5053014;28;20052;-52
2021/07/16 05:58:12;;;;;;;7.63;4.70;;;;;;;33.93;26.76;94124.09;5040501;28;20049;-52
2021/07/16 06:00:39;;;;;;;9.38;5.38;;;;;;;34.10;26.92;94111.09;5073516;28;20083;-52
2021/07/16 06:03:07;;;;;;;8.23;5.32;;;;;;;34.25;26.24;94117.50;5054259;28;20379;-52
2021/07/16 06:05:34;;;;;;;6.82;4.55;;;;;;;34.29;26.29;94118.88;5053859;28;20049;-52
2021/07/16 06:08:03;;;;;;;5.05;4.25;;;;;;;34.56;25.52;94117.53;5048998;28;20049;-51
2021/07/16 06:10:30;;;;;;;9.55;4.50;;;;;;;34.45;25.72;94117.19;5035407;28;20449;-56
2021/07/16 06:12:57;;;;;;;6.38;4.38;;;;;;;34.57;25.30;94114.34;5055622;28;20052;-51
2021/07/16 06:15:25;;;;;;;7.60;4.50;;;;;;;34.95;24.80;94107.13;5057995;28;20341;-52
2021/07/16 06:17:55;;;;;;;7.07;4.55;;;;;;;34.97;24.88;94115.59;5045437;28;20060;-53
2021/07/16 06:20:22;;;;;;;6.97;4.50;;;;;;;34.66;24.60;94097.38;5057995;28;20477;-52
2021/07/16 06:22:49;;;;;;;8.60;4.40;;;;;;;34.92;24.34;94109.53;5057809;28;20057;-52
2021/07/16 06:25:19;;;;;;;6.55;4.57;;;;;;;34.99;24.38;94102.31;5056698;28;20044;-51
2021/07/16 06:27:47;;;;;;;7.70;4.25;;;;;;;34.95;24.65;94093.56;5056489;28;20367;-52
2021/07/16 06:30:15;;;;;;;10.48;4.22;;;;;;;35.18;24.58;94093.00;5061881;28;20076;-51
2021/07/16 06:32:43;;;;;;;6.45;3.90;;;;;;;35.23;24.63;94086.97;5057571;28;20072;-52
2021/07/16 06:35:10;;;;;;;7.45;3.78;;;;;;;35.28;24.37;94088.31;5057681;28;20360;-54
2021/07/16 06:37:38;;;;;;;7.20;3.80;;;;;;;35.18;24.03;94084.84;5040238;28;20045;-53
2021/07/16 06:40:06;;;;;;;5.75;3.55;;;;;;;35.20;24.54;94080.47;5056072;28;20329;-56
2021/07/16 06:42:33;;;;;;;6.20;3.65;;;;;;;35.44;24.01;94083.38;5057008;28;20055;-55
2021/07/16 06:45:01;;;;;;;6.28;3.88;;;;;;;35.51;24.09;94085.78;5057641;28;20092;-55
2021/07/16 06:47:29;;;;;;;7.10;3.70;;;;;;;35.53;23.81;94079.91;5036299;28;20444;-52
2021/07/16 06:49:56;;;;;;;5.75;3.40;;;;;;;35.39;23.81;94075.81;5048693;28;20056;-52
2021/07/16 06:52:23;;;;;;;7.85;3.67;;;;;;;35.60;23.57;94070.69;5056304;28;20048;-53
2021/07/16 06:54:50;;;;;;;7.45;3.20;;;;;;;35.80;23.52;94065.53;5057468;28;20053;-53
2021/07/16 06:57:17;;;;;;;6.45;3.60;;;;;;;36.15;23.42;94061.22;5057255;28;20049;-53
2021/07/16 06:59:45;;;;;;;8.20;4.25;;;;;;;36.13;22.94;94071.81;5062364;28;20079;-53
2021/07/16 07:02:12;;;;;;;5.90;3.65;;;;;;;36.42;23.06;94065.09;5056104;28;20045;-54
2021/07/16 07:04:39;;;;;;;8.38;3.70;;;;;;;36.54;23.03;94066.09;5057189;28;20056;-55
2021/07/16 07:07:06;;;;;;;6.40;3.90;;;;;;;36.77;23.00;94057.22;5057029;28;20048;-53
2021/07/16 07:09:33;;;;;;;11.25;3.88;;;;;;;37.13;22.83;94060.94;5057045;28;20045;-53
2021/07/16 07:12:00;;;;;;;7.00;3.85;;;;;;;36.87;23.01;94061.41;5044714;28;20049;-54
2021/07/16 07:14:27;;;;;;;4.93;3.53;;;;;;;37.38;22.21;94054.28;5057150;28;20053;-54
2021/07/16 07:16:54;;;;;;;8.95;3.70;;;;;;;37.06;22.52;94048.44;5057033;28;20045;-52
2021/07/16 07:19:21;;;;;;;8.63;3.60;;;;;;;37.46;22.49;94049.97;5056733;28;20052;-54
2021/07/16 07:21:49;;;;;;;4.95;3.53;;;;;;;37.21;22.24;94056.66;5044864;28;20742;-57
2021/07/16 07:24:16;;;;;;;4.95;3.25;;;;;;;37.20;22.15;94055.88;5056014;28;20363;-55
2021/07/16 07:26:43;;;;;;;6.05;3.70;;;;;;;37.12;21.69;94052.03;5056948;28;20045;-52
2021/07/16 07:29:10;;;;;;;8.02;3.75;;;;;;;37.37;21.88;94041.88;5063241;28;20359;-54
2021/07/16 07:31:37;;;;;;;4.85;3.33;;;;;;;37.50;22.25;94034.97;5055834;28;20048;-53
2021/07/16 07:34:04;;;;;;;6.70;3.55;;;;;;;37.79;21.78;94034.25;5056631;28;20057;-53
2021/07/16 07:36:31;;;;;;;8.57;3.53;;;;;;;37.57;21.79;94039.28;5047223;28;20049;-54
2021/07/16 07:38:58;;;;;;;4.32;3.85;;;;;;;37.51;21.78;94041.16;5055803;28;20061;-53
2021/07/16 07:41:27;;;;;;;5.28;3.42;;;;;;;37.42;21.39;94043.94;5056397;28;20052;-55
2021/07/16 07:43:56;;;;;;;5.57;3.70;;;;;;;37.85;21.19;94035.09;5056483;28;20048;-53
2021/07/16 07:46:25;;;;;;;6.00;3.67;;;;;;;38.02;20.82;94034.63;5056116;28;20079;-53
2021/07/16 07:48:52;;;;;;;6.28;3.80;;;;;;;37.35;21.58;94034.91;5056646;28;20044;-53
2021/07/16 07:51:19;;;;;;;5.00;3.60;;;;;;;37.77;21.03;94042.16;5055059;28;20056;-54
2021/07/16 07:53:46;;;;;;;7.22;4.10;;;;;;;37.67;21.11;94032.50;5056317;28;20040;-52
2021/07/16 07:56:13;;;;;;;6.22;3.95;;;;;;;37.50;21.13;94039.66;5054635;28;20056;-52
2021/07/16 07:58:40;;;;;;;4.82;3.92;;;;;;;37.41;21.17;94026.84;5053275;28;20061;-55
2021/07/16 08:01:07;;;;;;;7.15;3.97;;;;;;;37.89;20.97;94027.47;5055733;28;20049;-54
2021/07/16 08:03:34;;;;;;;6.97;4.22;;;;;;;37.76;21.66;94039.91;5055898;28;20048;-56
2021/07/16 08:06:01;;;;;;;5.82;3.78;;;;;;;37.41;21.41;94031.53;5055143;28;20078;-54
2021/07/16 08:08:29;;;;;;;5.35;3.50;;;;;;;37.92;21.30;94037.44;5055697;28;20052;-51
2021/07/16 08:10:56;;;;;;;4.18;3.60;;;;;;;37.82;21.16;94044.22;5054283;28;20045;-55
2021/07/16 08:13:23;;;;;;;5.95;3.95;;;;;;;37.65;21.36;94030.25;5054847;28;20049;-53
2021/07/16 08:15:50;;;;;;;6.75;4.53;;;;;;;37.64;21.39;94038.91;5055690;28;20364;-52
2021/07/16 08:18:17;;;;;;;6.90;4.15;;;;;;;37.35;21.63;94037.66;5055400;28;20064;-54
2021/07/16 08:20:44;;;;;;;9.60;4.15;;;;;;;37.81;21.04;94042.72;5055027;28;20088;-54
2021/07/16 08:23:11;;;;;;;6.15;4.13;;;;;;;38.02;20.69;94037.34;5054260;28;20056;-54
2021/07/16 08:25:39;;;;;;;6.43;4.10;;;;;;;37.93;21.79;94044.41;5054473;28;20041;-54
2021/07/16 08:28:06;;;;;;;6.32;4.18;;;;;;;37.82;21.48;94040.75;5057023;28;20514;-53
2021/07/16 08:30:33;;;;;;;7.70;4.30;;;;;;;37.99;20.98;94043.72;5075600;28;20056;-55
2021/07/16 08:33:00;;;;;;;7.18;4.20;;;;;;;38.46;21.07;94029.88;5060805;28;20071;-54
2021/07/16 08:35:27;;;;;;;5.95;4.13;;;;;;;38.31;20.71;94037.34;5047807;28;20084;-53
2021/07/16 08:37:54;;;;;;;8.43;4.00;;;;;;;37.96;21.11;94038.00;5034308;28;20452;-53
2021/07/16 08:40:22;;;;;;;5.78;4.20;;;;;;;37.96;20.86;94027.09;5027488;28;20053;-52
2021/07/16 08:42:49;;;;;;;4.80;4.40;;;;;;;38.15;21.13;94026.88;5046530;28;20051;-54
2021/07/16 08:45:16;;;;;;;12.60;4.75;;;;;;;38.25;21.24;94026.31;5053313;28;20052;-52
2021/07/16 08:47:44;;;;;;;4.80;4.30;;;;;;;38.30;21.33;94022.19;5054382;28;20052;-52
2021/07/16 08:50:13;;;;;;;5.80;4.15;;;;;;;38.10;20.99;94022.84;5069579;28;20041;-52
2021/07/16 08:52:44;;;;;;;4.93;4.15;;;;;;;38.19;20.82;94022.78;5053662;28;20836;-56
2021/07/16 08:55:13;;;;;;;8.50;3.90;;;;;;;38.40;21.21;94028.28;5055093;28;20432;-54
2021/07/16 08:57:41;;;;;;;4.68;3.95;;;;;;;38.40;20.63;94018.13;5055114;28;20375;-57
2021/07/16 09:00:12;;;;;;;6.82;4.03;;;;;;;38.68;20.59;94020.50;5074132;28;20051;-54
2021/07/16 09:02:57;;;;;;;8.45;4.72;;;;;;;38.42;21.04;94006.72;5064830;28;20053;-53
2021/07/16 09:05:37;;;;;;;7.57;4.78;;;;;;;38.39;21.02;94019.34;5053954;28;20060;-54
2021/07/16 09:08:11;;;;;;;8.68;4.45;;;;;;;37.99;21.29;94009.03;5054926;28;20065;-59
2021/07/16 09:10:59;;;;;;;6.35;4.38;;;;;;;38.52;20.70;94021.78;5054976;28;20317;-53
2021/07/16 09:13:29;;;;;;;7.97;4.40;;;;;;;38.08;21.47;94006.22;5054289;28;20044;-54
2021/07/16 09:16:02;;;;;;;8.15;4.68;;;;;;;37.83;21.53;94006.78;5053842;28;20048;-53
2021/07/16 09:18:32;;;;;;;6.85;4.45;;;;;;;37.97;21.11;93998.59;5055193;28;20435;-52
2021/07/16 09:21:02;;;;;;;9.23;5.43;;;;;;;38.14;21.31;93998.84;5055098;28;20428;-57
2021/07/16 09:23:56;;;;;;;7.32;5.00;;;;;;;38.54;20.84;94002.94;5046512;28;20056;-52
2021/07/16 09:26:26;;;;;;;10.25;6.20;;;;;;;38.72;20.94;93996.47;5052109;28;20061;-54
2021/07/16 09:28:56;;;;;;;8.23;5.70;;;;;;;38.40;21.26;94001.75;5063328;28;20355;-54
2021/07/16 09:31:25;;;;;;;8.32;5.10;;;;;;;38.49;20.52;93996.16;5074667;28;20367;-52
2021/07/16 09:34:01;;;;;;;6.97;4.80;;;;;;;38.51;20.33;93998.41;5054151;28;20052;-53
2021/07/16 09:36:38;;;;;;;5.72;4.60;;;;;;;38.15;20.88;93999.59;5054417;28;20056;-55
2021/07/16 09:39:07;;;;;;;9.55;5.00;;;;;;;38.89;20.33;93991.25;5051352;28;20076;-55
2021/07/16 09:41:34;;;;;;;7.50;5.03;;;;;;;38.76;20.65;93991.56;5034487;28;20074;-55
2021/07/16 09:44:03;;;;;;;8.10;4.72;;;;;;;39.17;20.16;93987.63;5051539;28;20064;-54
2021/07/16 09:46:31;;;;;;;6.00;4.90;;;;;;;38.78;20.95;93981.69;5053156;28;20443;-53
2021/07/16 09:49:14;;;;;;;8.75;5.22;;;;;;;38.35;21.25;93982.56;5036675;28;20371;-54
2021/07/16 09:51:42;;;;;;;6.07;5.05;;;;;;;38.49;20.57;93987.22;5053677;28;20059;-53
2021/07/16 09:54:13;;;;;;;7.57;4.70;;;;;;;38.74;20.61;93988.56;5054068;28;20048;-53
2021/07/16 09:56:40;;;;;;;6.72;5.50;;;;;;;38.54;21.10;93970.94;5054187;28;20062;-56
2021/07/16 09:59:09;;;;;;;10.27;8.93;;;;;;;38.62;20.76;93982.22;5051955;28;20052;-54
2021/07/16 10:01:41;;;;;;;7.65;5.82;;;;;;;38.91;20.38;93981.34;5053333;28;20060;-55
2021/07/16 10:04:16;;;;;;;7.18;5.70;;;;;;;38.70;20.85;93968.91;5046745;28;20075;-52
2021/07/16 10:06:47;;;;;;;8.70;5.47;;;;;;;38.79;20.60;93975.00;5053669;28;20061;-52
2021/07/16 10:09:16;;;;;;;7.55;4.80;;;;;;;38.49;21.28;93974.31;5054261;28;20041;-54
2021/07/16 10:11:47;;;;;;;6.97;5.30;;;;;;;38.71;21.08;93965.69;5054102;28;20045;-53
2021/07/16 10:14:16;;;;;;;8.07;5.70;;;;;;;38.53;21.11;93958.50;5053995;28;20372;-54
2021/07/16 10:16:53;;;;;;;7.90;5.93;;;;;;;38.44;21.19;93961.34;5053367;28;20049;-54
2021/07/16 10:19:21;;;;;;;6.97;5.57;;;;;;;38.36;20.85;93948.59;5053577;28;20356;-54
2021/07/16 10:21:51;;;;;;;6.85;5.18;;;;;;;38.44;21.60;93958.63;5052574;28;20048;-51
2021/07/16 10:24:22;;;;;;;9.18;6.20;;;;;;;38.35;21.09;93958.75;5053735;28;20048;-53
2021/07/16 10:26:51;;;;;;;9.57;5.70;;;;;;;37.87;21.57;93967.19;5053302;28;20053;-51
2021/07/16 10:29:34;;;;;;;8.43;5.80;;;;;;;38.43;21.14;93954.38;5040502;28;20045;-52
2021/07/16 10:32:01;;;;;;;7.28;5.72;;;;;;;38.28;21.29;93947.50;5034610;28;20495;-54
2021/07/16 10:34:36;;;;;;;6.20;5.25;;;;;;;38.21;21.89;93954.06;5062327;28;20045;-54
2021/07/16 10:37:10;;;;;;;7.65;5.78;;;;;;;37.91;21.50;93947.91;5053456;28;20443;-53
2021/07/16 10:39:46;;;;;;;9.73;5.38;;;;;;;38.24;21.18;93945.69;5053808;28;20049;-55
2021/07/16 10:42:29;;;;;;;9.00;6.07;;;;;;;38.49;21.14;93940.81;5053694;28;20052;-55
2021/07/16 10:44:58;;;;;;;7.78;5.65;;;;;;;38.22;21.31;93941.94;5053483;28;20052;-53
2021/07/16 10:47:38;;;;;;;9.73;5.53;;;;;;;38.28;21.45;93942.78;5053802;28;20056;-53
2021/07/16 10:50:14;;;;;;;10.70;6.28;;;;;;;38.14;21.86;93943.53;5053727;28;20045;-53
2021/07/16 10:52:46;;;;;;;8.05;5.63;;;;;;;38.24;21.50;93947.66;5052590;28;20059;-53
2021/07/16 10:55:18;;;;;;;6.55;5.72;;;;;;;38.25;21.43;93939.00;5053582;28;20048;-53
2021/07/16 10:57:48;;;;;;;6.60;5.45;;;;;;;37.88;21.60;93938.69;5053853;28;20529;-53
2021/07/16 11:00:37;;;;;;;9.43;6.10;;;;;;;37.87;21.93;93930.97;5076033;28;20068;-53
2021/07/16 11:03:14;;;;;;;11.27;5.80;;;;;;;37.93;22.03;93934.53;5050216;28;20057;-55
2021/07/16 11:05:45;;;;;;;6.18;5.57;;;;;;;38.07;21.51;93917.41;5056039;28;20049;-55
2021/07/16 11:08:32;;;;;;;10.02;6.00;;;;;;;38.04;21.57;93923.06;5056618;28;20052;-55
2021/07/16 11:11:03;;;;;;;8.90;5.47;;;;;;;37.89;21.60;93934.00;5057305;28;20049;-54
2021/07/16 11:13:46;;;;;;;9.55;5.82;;;;;;;38.07;21.23;93905.75;5055566;28;20060;-53
2021/07/16 11:18:53;;;;;;;7.57;5.68;;;;;;;37.85;22.16;93917.81;5057283;28;20072;-55
2021/07/16 11:21:39;;;;;;;8.98;5.80;;;;;;;38.14;21.48;93916.25;5056874;28;20052;-53
2021/07/16 11:24:25;;;;;;;8.13;5.90;;;;;;;38.18;21.42;93903.94;5069743;28;20049;-53
2021/07/16 11:27:09;;;;;;;7.25;5.80;;;;;;;38.21;21.37;93897.50;5057076;28;20049;-54
2021/07/16 11:29:41;;;;;;;6.00;5.25;;;;;;;38.25;21.76;93905.50;5071548;28;20064;-55
2021/07/16 11:32:25;;;;;;;7.15;5.78;;;;;;;38.58;20.96;93909.91;5076993;28;20071;-57
2021/07/16 11:34:56;;;;;;;12.40;5.88;;;;;;;38.21;21.05;93905.69;5060104;28;20052;-55
2021/07/16 11:37:34;;;;;;;10.57;5.80;;;;;;;38.21;21.37;93899.50;5056703;28;20044;-53
2021/07/16 11:40:08;;;;;;;6.40;5.63;;;;;;;38.38;21.55;93903.19;5056363;28;20053;-56
2021/07/16 11:42:49;;;;;;;11.88;5.60;;;;;;;38.29;21.24;93906.06;5056799;28;20507;-54